createdAt,value
2023-03-06T00:01:13.793Z,32.18
2023-03-06T00:03:40.542Z,31.94
2023-03-06T00:06:07.330Z,31.93
2023-03-06T00:08:34.203Z,31.85
2023-03-06T00:11:01.021Z,31.75
2023-03-06T00:13:29.904Z,31.76
2023-03-06T00:15:56.746Z,31.54
2023-03-06T00:18:23.518Z,31.57
2023-03-06T00:20:50.259Z,31.82
2023-03-06T00:23:17.021Z,31.43
2023-03-06T00:25:43.864Z,33.56
2023-03-06T00:28:12.081Z,35.14
2023-03-06T00:30:38.947Z,38.24
2023-03-06T00:33:05.689Z,35.55
2023-03-06T00:35:32.445Z,34.31
2023-03-06T00:37:59.758Z,33.50
2023-03-06T00:40:26.539Z,33.09
2023-03-06T00:42:53.299Z,32.98
2023-03-06T00:45:20.066Z,32.58
2023-03-06T00:47:46.814Z,32.55
2023-03-06T00:50:13.608Z,32.38
2023-03-06T00:52:41.856Z,32.30
2023-03-06T00:55:08.607Z,32.35
2023-03-06T00:57:35.366Z,32.13
2023-03-06T01:00:02.134Z,32.14
2023-03-06T01:02:29.051Z,32.01
2023-03-06T01:04:55.832Z,31.87
2023-03-06T01:07:22.590Z,31.70
2023-03-06T01:09:49.318Z,31.78
2023-03-06T01:12:16.108Z,31.71
2023-03-06T01:14:42.890Z,31.97
2023-03-06T01:17:09.647Z,31.65
2023-03-06T01:19:36.476Z,31.65
2023-03-06T01:22:03.226Z,31.73
2023-03-06T01:24:30.012Z,34.01
2023-03-06T01:26:56.778Z,35.97
2023-03-06T01:29:23.605Z,38.90
2023-03-06T01:31:50.354Z,35.65
2023-03-06T01:34:17.105Z,34.25
2023-03-06T01:36:43.849Z,33.71
2023-03-06T01:39:10.621Z,32.84
2023-03-06T01:41:37.343Z,32.86
2023-03-06T01:44:04.138Z,32.65
2023-03-06T01:46:30.917Z,32.58
2023-03-06T01:48:57.675Z,32.36
2023-03-06T01:51:24.483Z,32.17
2023-03-06T01:53:51.226Z,32.19
2023-03-06T01:56:17.994Z,32.16
2023-03-06T01:58:44.761Z,31.95
2023-03-06T02:01:11.526Z,31.96
2023-03-06T02:03:38.304Z,31.82
2023-03-06T02:06:05.063Z,31.81
2023-03-06T02:08:31.787Z,31.87
2023-03-06T02:10:58.646Z,31.85
2023-03-06T02:13:25.396Z,31.66
2023-03-06T02:15:52.128Z,31.65
2023-03-06T02:18:18.928Z,31.55
2023-03-06T02:20:45.815Z,31.55
2023-03-06T02:23:12.594Z,31.78
2023-03-06T02:25:39.448Z,34.33
2023-03-06T02:28:06.223Z,35.73
2023-03-06T02:30:33.132Z,37.84
2023-03-06T02:33:00.016Z,35.29
2023-03-06T02:35:26.831Z,33.78
2023-03-06T02:37:53.620Z,33.54
2023-03-06T02:40:20.356Z,32.83
2023-03-06T02:42:47.179Z,32.93
2023-03-06T02:45:13.918Z,32.15
2023-03-06T02:47:40.659Z,32.58
2023-03-06T02:50:07.431Z,32.24
2023-03-06T02:52:34.350Z,32.14
2023-03-06T02:55:01.124Z,32.10
2023-03-06T02:57:27.872Z,31.94
2023-03-06T02:59:54.622Z,31.84
2023-03-06T03:02:21.406Z,31.74
2023-03-06T03:04:48.274Z,31.82
2023-03-06T03:07:15.060Z,31.88
2023-03-06T03:09:41.800Z,31.93
2023-03-06T03:12:08.550Z,31.78
2023-03-06T03:14:35.369Z,31.79
2023-03-06T03:17:02.159Z,31.34
2023-03-06T03:19:29.013Z,31.60
2023-03-06T03:21:55.751Z,33.27
2023-03-06T03:24:22.577Z,35.19
2023-03-06T03:26:49.330Z,37.08
2023-03-06T03:29:16.072Z,36.08
2023-03-06T03:31:42.818Z,34.25
2023-03-06T03:34:09.581Z,33.29
2023-03-06T03:36:36.402Z,32.98
2023-03-06T03:39:04.109Z,32.76
2023-03-06T03:41:30.994Z,32.53
2023-03-06T03:43:57.738Z,32.46
2023-03-06T03:46:24.541Z,32.32
2023-03-06T03:48:51.428Z,31.91
2023-03-06T03:51:18.238Z,32.24
2023-03-06T03:53:45.109Z,31.98
2023-03-06T03:56:11.855Z,31.88
2023-03-06T03:58:38.589Z,32.10
2023-03-06T04:01:05.339Z,31.87
2023-03-06T04:03:32.577Z,31.73
2023-03-06T04:05:59.304Z,31.79
2023-03-06T04:08:26.040Z,31.75
2023-03-06T04:10:52.799Z,31.89
2023-03-06T04:13:20.889Z,31.41
2023-03-06T04:15:47.620Z,31.50
2023-03-06T04:18:16.201Z,31.57
2023-03-06T04:20:43.017Z,32.40
2023-03-06T04:23:09.758Z,34.78
2023-03-06T04:25:36.533Z,35.52
2023-03-06T04:28:03.320Z,36.22
2023-03-06T04:30:30.052Z,34.47
2023-03-06T04:32:56.801Z,33.57
2023-03-06T04:35:23.548Z,32.72
2023-03-06T04:37:50.300Z,32.74
2023-03-06T04:40:17.067Z,32.42
2023-03-06T04:42:43.850Z,32.63
2023-03-06T04:45:10.599Z,32.47
2023-03-06T04:47:37.355Z,32.35
2023-03-06T04:50:04.332Z,32.08
2023-03-06T04:52:31.378Z,32.06
2023-03-06T04:54:58.187Z,31.91
2023-03-06T04:57:24.936Z,31.98
2023-03-06T04:59:51.668Z,31.73
2023-03-06T05:02:18.603Z,31.93
2023-03-06T05:04:45.427Z,31.65
2023-03-06T05:07:12.563Z,31.72
2023-03-06T05:09:39.319Z,31.65
2023-03-06T05:12:06.047Z,31.93
2023-03-06T05:14:32.791Z,31.51
2023-03-06T05:16:59.548Z,31.60
2023-03-06T05:19:26.289Z,31.49
2023-03-06T05:21:53.069Z,34.03
2023-03-06T05:24:19.830Z,34.99
2023-03-06T05:26:46.606Z,36.73
2023-03-06T05:29:13.360Z,34.79
2023-03-06T05:31:40.229Z,33.84
2023-03-06T05:34:07.014Z,33.18
2023-03-06T05:36:33.768Z,32.92
2023-03-06T05:39:00.605Z,32.42
2023-03-06T05:41:27.342Z,32.35
2023-03-06T05:43:54.208Z,32.18
2023-03-06T05:46:21.050Z,32.04
2023-03-06T05:48:49.184Z,32.04
2023-03-06T05:51:15.926Z,32.08
2023-03-06T05:53:42.719Z,32.21
2023-03-06T05:56:09.753Z,32.01
2023-03-06T05:58:36.483Z,31.91
2023-03-06T06:01:03.227Z,31.62
2023-03-06T06:03:30.019Z,31.67
2023-03-06T06:05:56.767Z,31.77
2023-03-06T06:08:23.531Z,31.70
2023-03-06T06:10:53.178Z,31.56
2023-03-06T06:13:20.179Z,31.75
2023-03-06T06:15:46.982Z,31.47
2023-03-06T06:18:13.747Z,33.70
2023-03-06T06:20:40.552Z,35.36
2023-03-06T06:23:07.325Z,36.81
2023-03-06T06:25:34.083Z,35.36
2023-03-06T06:28:00.814Z,34.15
2023-03-06T06:30:27.564Z,33.22
2023-03-06T06:32:54.323Z,32.93
2023-03-06T06:35:21.176Z,32.80
2023-03-06T06:37:48.032Z,32.46
2023-03-06T06:40:14.865Z,32.25
2023-03-06T06:42:41.660Z,32.24
2023-03-06T06:45:08.428Z,32.11
2023-03-06T06:47:38.103Z,32.04
2023-03-06T06:50:04.854Z,32.07
2023-03-06T06:52:31.600Z,31.89
2023-03-06T06:54:58.365Z,31.91
2023-03-06T06:57:25.092Z,31.83
2023-03-06T06:59:53.791Z,31.47
2023-03-06T07:02:20.901Z,31.64
2023-03-06T07:05:02.555Z,31.76
2023-03-06T07:07:30.736Z,31.67
2023-03-06T07:09:57.585Z,31.55
2023-03-06T07:12:24.330Z,31.81
2023-03-06T07:14:51.073Z,33.16
2023-03-06T07:17:17.831Z,35.01
2023-03-06T07:19:44.635Z,37.47
2023-03-06T07:22:11.793Z,35.63
2023-03-06T07:24:38.577Z,34.23
2023-03-06T07:27:05.369Z,33.40
2023-03-06T07:29:33.916Z,33.12
2023-03-06T07:32:00.708Z,32.58
2023-03-06T07:34:27.489Z,32.55
2023-03-06T07:36:54.234Z,32.55
2023-03-06T07:39:20.970Z,32.57
2023-03-06T07:41:47.747Z,32.11
2023-03-06T07:44:14.579Z,32.17
2023-03-06T07:46:41.531Z,31.94
2023-03-06T07:49:08.308Z,32.35
2023-03-06T07:51:35.087Z,31.81
2023-03-06T07:54:01.854Z,31.75
2023-03-06T07:56:28.632Z,31.95
2023-03-06T07:58:56.773Z,31.76
2023-03-06T08:01:24.112Z,31.74
2023-03-06T08:03:50.935Z,31.67
2023-03-06T08:06:17.752Z,31.62
2023-03-06T08:08:44.559Z,32.61
2023-03-06T08:11:11.309Z,35.12
2023-03-06T08:13:38.280Z,37.40
2023-03-06T08:16:05.085Z,36.48
2023-03-06T08:18:31.869Z,34.62
2023-03-06T08:20:58.659Z,33.89
2023-03-06T08:23:25.382Z,33.11
2023-03-06T08:25:52.117Z,32.97
2023-03-06T08:28:18.886Z,32.66
2023-03-06T08:30:45.658Z,32.53
2023-03-06T08:33:12.570Z,32.53
2023-03-06T08:35:39.384Z,32.39
2023-03-06T08:38:06.134Z,32.20
2023-03-06T08:40:32.952Z,32.22
2023-03-06T08:42:59.734Z,32.15
2023-03-06T08:45:26.529Z,32.07
2023-03-06T08:47:53.286Z,32.21
2023-03-06T08:50:20.057Z,32.20
2023-03-06T08:52:46.797Z,31.72
2023-03-06T08:55:15.160Z,31.80
2023-03-06T08:57:41.997Z,31.86
2023-03-06T09:00:09.017Z,31.71
2023-03-06T09:02:35.843Z,32.06
2023-03-06T09:05:02.707Z,34.85
2023-03-06T09:07:29.461Z,36.58
2023-03-06T09:09:56.601Z,38.04
2023-03-06T09:12:23.352Z,35.56
2023-03-06T09:14:50.102Z,34.27
2023-03-06T09:17:16.863Z,33.68
2023-03-06T09:19:43.687Z,33.20
2023-03-06T09:22:10.415Z,33.09
2023-03-06T09:24:37.176Z,32.94
2023-03-06T09:27:04.034Z,32.75
2023-03-06T09:29:30.832Z,32.61
2023-03-06T09:31:57.570Z,32.57
2023-03-06T09:34:24.436Z,32.53
2023-03-06T09:36:56.771Z,32.13
2023-03-06T09:39:24.298Z,31.92
2023-03-06T09:41:51.111Z,32.31
2023-03-06T09:44:17.901Z,32.12
2023-03-06T09:46:44.675Z,31.84
2023-03-06T09:49:11.426Z,32.17
2023-03-06T09:51:38.142Z,31.93
2023-03-06T09:54:05.130Z,31.93
2023-03-06T09:56:31.966Z,31.80
2023-03-06T09:58:58.718Z,32.19
2023-03-06T10:01:25.445Z,31.74
2023-03-06T10:03:52.210Z,34.34
2023-03-06T10:06:18.981Z,35.13
2023-03-06T10:08:45.721Z,37.14
2023-03-06T10:11:12.480Z,35.57
2023-03-06T10:13:39.323Z,34.39
2023-03-06T10:16:06.146Z,33.70
2023-03-06T10:18:32.960Z,33.33
2023-03-06T10:21:13.432Z,33.00
2023-03-06T10:23:45.402Z,32.95
2023-03-06T10:26:12.181Z,32.85
2023-03-06T10:28:38.932Z,32.65
2023-03-06T10:31:05.765Z,32.42
2023-03-06T10:33:32.514Z,32.49
2023-03-06T10:35:59.281Z,32.46
2023-03-06T10:38:26.089Z,32.16
2023-03-06T10:40:53.009Z,32.19
2023-03-06T10:43:19.749Z,32.12
2023-03-06T10:45:49.266Z,32.50
2023-03-06T10:48:16.410Z,32.21
2023-03-06T10:50:43.161Z,31.94
2023-03-06T10:53:09.908Z,32.03
2023-03-06T10:55:36.854Z,31.96
2023-03-06T10:58:03.597Z,34.69
2023-03-06T11:00:30.387Z,34.93
2023-03-06T11:02:57.131Z,36.69
2023-03-06T11:05:23.904Z,35.07
2023-03-06T11:07:50.659Z,34.11
2023-03-06T11:10:18.619Z,33.84
2023-03-06T11:12:45.442Z,33.33
2023-03-06T11:15:12.627Z,33.36
2023-03-06T11:17:39.402Z,32.95
2023-03-06T11:20:06.256Z,32.68
2023-03-06T11:22:33.019Z,32.73
2023-03-06T11:24:59.760Z,32.77
2023-03-06T11:27:26.537Z,32.75
2023-03-06T11:29:53.294Z,32.41
2023-03-06T11:32:20.066Z,32.32
2023-03-06T11:34:48.624Z,32.41
2023-03-06T11:37:17.118Z,32.49
2023-03-06T11:39:43.876Z,32.58
2023-03-06T11:42:10.633Z,32.30
2023-03-06T11:44:37.402Z,32.52
2023-03-06T11:47:04.129Z,34.52
2023-03-06T11:49:30.859Z,34.62
2023-03-06T11:51:57.617Z,35.88
2023-03-06T11:54:24.369Z,36.24
2023-03-06T11:56:51.118Z,35.03
2023-03-06T11:59:17.892Z,34.10
2023-03-06T12:01:44.676Z,33.74
2023-03-06T12:04:11.481Z,33.49
2023-03-06T12:06:38.237Z,33.35
2023-03-06T12:09:05.100Z,32.90
2023-03-06T12:11:33.241Z,32.95
2023-03-06T12:14:02.314Z,33.07
2023-03-06T12:16:30.841Z,32.93
2023-03-06T12:18:57.596Z,32.68
2023-03-06T12:21:24.391Z,32.75
2023-03-06T12:23:51.119Z,32.76
2023-03-06T12:26:17.852Z,32.37
2023-03-06T12:28:46.334Z,32.37
2023-03-06T12:31:13.267Z,32.44
2023-03-06T12:33:40.743Z,32.51
2023-03-06T12:36:07.499Z,32.28
2023-03-06T12:38:34.234Z,33.31
2023-03-06T12:41:00.994Z,34.11
2023-03-06T12:43:27.764Z,35.20
2023-03-06T12:45:54.539Z,35.43
2023-03-06T12:48:21.355Z,34.92
2023-03-06T12:50:48.121Z,34.55
2023-03-06T12:53:14.878Z,33.87
2023-03-06T12:55:41.655Z,33.51
2023-03-06T12:58:08.473Z,33.70
2023-03-06T13:00:35.272Z,33.21
2023-03-06T13:03:02.010Z,33.23
2023-03-06T13:05:28.900Z,33.27
2023-03-06T13:07:55.682Z,32.87
2023-03-06T13:10:23.173Z,32.68
2023-03-06T13:12:49.946Z,32.88
2023-03-06T13:15:16.704Z,32.61
2023-03-06T13:17:43.450Z,32.51
2023-03-06T13:20:11.043Z,32.25
2023-03-06T13:22:37.787Z,32.43
2023-03-06T13:25:08.481Z,32.58
2023-03-06T13:27:35.304Z,34.13
2023-03-06T13:30:02.093Z,34.66
2023-03-06T13:32:29.161Z,35.81
2023-03-06T13:34:55.970Z,35.47
2023-03-06T13:37:23.339Z,34.98
2023-03-06T13:39:50.109Z,34.45
2023-03-06T13:42:16.867Z,33.81
2023-03-06T13:44:43.665Z,33.79
2023-03-06T13:47:10.537Z,33.38
2023-03-06T13:49:37.288Z,33.29
2023-03-06T13:52:04.069Z,33.05
2023-03-06T13:54:31.054Z,33.10
2023-03-06T13:56:57.859Z,33.03
2023-03-06T13:59:24.620Z,32.80
2023-03-06T14:01:51.421Z,32.89
2023-03-06T14:04:18.227Z,32.75
2023-03-06T14:06:44.971Z,32.62
2023-03-06T14:09:11.729Z,32.50
2023-03-06T14:11:38.742Z,32.49
2023-03-06T14:14:05.500Z,34.37
2023-03-06T14:16:40.586Z,34.91
2023-03-06T14:19:14.343Z,36.64
2023-03-06T14:21:41.152Z,36.17
2023-03-06T14:24:07.899Z,35.27
2023-03-06T14:26:34.730Z,34.56
2023-03-06T14:29:01.472Z,33.87
2023-03-06T14:31:28.296Z,33.71
2023-03-06T14:33:55.407Z,33.75
2023-03-06T14:36:22.175Z,33.70
2023-03-06T14:38:48.990Z,33.13
2023-03-06T14:41:15.733Z,33.11
2023-03-06T14:43:42.510Z,32.97
2023-03-06T14:46:09.327Z,32.90
2023-03-06T14:48:38.300Z,32.81
2023-03-06T14:51:05.068Z,33.15
2023-03-06T14:53:31.948Z,33.01
2023-03-06T14:56:00.031Z,32.72
2023-03-06T14:58:26.857Z,32.45
2023-03-06T15:00:54.576Z,32.74
2023-03-06T15:03:21.388Z,32.76
2023-03-06T15:05:48.170Z,34.96
2023-03-06T15:08:14.928Z,34.88
2023-03-06T15:10:43.219Z,36.69
2023-03-06T15:13:10.020Z,35.99
2023-03-06T15:15:36.806Z,34.89
2023-03-06T15:18:03.714Z,34.21
2023-03-06T15:20:30.477Z,34.06
2023-03-06T15:22:57.220Z,33.67
2023-03-06T15:25:24.023Z,33.53
2023-03-06T15:27:50.763Z,33.53
2023-03-06T15:30:17.574Z,33.36
2023-03-06T15:32:44.531Z,33.55
2023-03-06T15:35:11.318Z,33.20
2023-03-06T15:37:38.072Z,33.38
2023-03-06T15:40:06.409Z,33.17
2023-03-06T15:42:33.157Z,32.99
2023-03-06T15:45:00.091Z,32.97
2023-03-06T15:47:26.879Z,32.73
2023-03-06T15:49:53.812Z,32.90
2023-03-06T15:52:20.612Z,32.67
2023-03-06T15:54:47.379Z,35.30
2023-03-06T15:57:14.189Z,35.74
2023-03-06T15:59:41.285Z,37.68
2023-03-06T16:02:08.026Z,36.28
2023-03-06T16:04:34.774Z,35.13
2023-03-06T16:07:01.646Z,34.52
2023-03-06T16:09:28.430Z,34.09
2023-03-06T16:11:55.169Z,33.98
2023-03-06T16:14:23.506Z,33.84
2023-03-06T16:16:50.396Z,33.58
2023-03-06T16:19:25.905Z,33.71
2023-03-06T16:21:53.064Z,33.33
2023-03-06T16:24:19.826Z,33.08
2023-03-06T16:26:46.570Z,33.25
2023-03-06T16:29:13.326Z,33.09
2023-03-06T16:31:40.050Z,33.25
2023-03-06T16:34:06.848Z,32.87
2023-03-06T16:36:33.611Z,33.01
2023-03-06T16:39:00.353Z,32.80
2023-03-06T16:41:27.462Z,32.84
2023-03-06T16:43:54.230Z,32.96
2023-03-06T16:46:21.007Z,33.04
2023-03-06T16:48:47.813Z,34.91
2023-03-06T16:51:14.604Z,36.05
2023-03-06T16:53:41.337Z,36.92
2023-03-06T16:56:08.064Z,35.91
2023-03-06T16:58:34.874Z,35.01
2023-03-06T17:01:01.963Z,34.61
2023-03-06T17:03:28.745Z,34.11
2023-03-06T17:05:55.512Z,34.11
2023-03-06T17:08:22.283Z,33.74
2023-03-06T17:10:50.258Z,33.56
2023-03-06T17:13:17.129Z,33.39
2023-03-06T17:15:43.877Z,33.35
2023-03-06T17:18:10.608Z,33.22
2023-03-06T17:20:37.376Z,33.42
2023-03-06T17:23:04.133Z,32.99
2023-03-06T17:25:31.373Z,33.21
2023-03-06T17:27:58.133Z,32.97
2023-03-06T17:30:24.881Z,32.78
2023-03-06T17:32:51.658Z,32.96
2023-03-06T17:35:18.489Z,34.47
2023-03-06T17:37:45.346Z,36.39
2023-03-06T17:40:12.145Z,38.79
2023-03-06T17:42:38.948Z,37.38
2023-03-06T17:45:06.201Z,35.68
2023-03-06T17:47:32.935Z,34.85
2023-03-06T17:49:59.739Z,34.40
2023-03-06T17:52:26.537Z,34.03
2023-03-06T17:54:53.444Z,33.95
2023-03-06T17:57:20.437Z,33.84
2023-03-06T17:59:48.606Z,33.70
2023-03-06T18:02:15.351Z,33.72
2023-03-06T18:04:42.249Z,33.67
2023-03-06T18:07:10.143Z,33.20
2023-03-06T18:09:36.950Z,33.06
2023-03-06T18:12:03.733Z,33.21
2023-03-06T18:14:30.549Z,33.09
2023-03-06T18:16:57.316Z,33.14
2023-03-06T18:19:24.257Z,33.04
2023-03-06T18:21:51.013Z,33.19
2023-03-06T18:24:17.762Z,32.93
2023-03-06T18:26:44.541Z,32.82
2023-03-06T18:29:11.296Z,32.92
2023-03-06T18:31:38.113Z,34.71
2023-03-06T18:34:04.943Z,35.85
2023-03-06T18:36:31.701Z,39.43
2023-03-06T18:38:58.574Z,36.81
2023-03-06T18:41:25.352Z,35.38
2023-03-06T18:43:52.114Z,34.51
2023-03-06T18:46:18.849Z,34.28
2023-03-06T18:48:45.601Z,33.93
2023-03-06T18:51:12.368Z,33.53
2023-03-06T18:53:39.968Z,33.72
2023-03-06T18:56:06.800Z,33.45
2023-03-06T18:58:33.546Z,33.37
2023-03-06T19:01:02.027Z,33.19
2023-03-06T19:03:28.781Z,33.21
2023-03-06T19:05:55.726Z,33.11
2023-03-06T19:08:22.555Z,33.35
2023-03-06T19:10:49.963Z,32.97
2023-03-06T19:13:16.721Z,32.83
2023-03-06T19:15:44.171Z,32.87
2023-03-06T19:18:10.931Z,32.98
2023-03-06T19:20:37.725Z,32.78
2023-03-06T19:23:04.496Z,36.03
2023-03-06T19:25:31.305Z,37.57
2023-03-06T19:27:58.081Z,38.02
2023-03-06T19:30:25.654Z,35.67
2023-03-06T19:32:52.661Z,34.85
2023-03-06T19:35:19.433Z,34.51
2023-03-06T19:37:46.208Z,34.21
2023-03-06T19:40:12.973Z,34.02
2023-03-06T19:42:39.734Z,33.83
2023-03-06T19:45:06.516Z,33.60
2023-03-06T19:47:33.270Z,33.40
2023-03-06T19:50:00.008Z,33.29
2023-03-06T19:52:26.812Z,33.33
2023-03-06T19:54:53.550Z,33.39
2023-03-06T19:57:20.277Z,33.13
2023-03-06T19:59:47.024Z,32.99
2023-03-06T20:02:15.951Z,33.05
2023-03-06T20:04:42.765Z,32.93
2023-03-06T20:07:09.525Z,33.02
2023-03-06T20:09:36.520Z,32.90
2023-03-06T20:12:03.243Z,32.71
2023-03-06T20:14:30.004Z,32.76
2023-03-06T20:16:56.923Z,34.43
2023-03-06T20:19:23.667Z,36.47
2023-03-06T20:21:50.504Z,39.99
2023-03-06T20:24:17.826Z,36.81
2023-03-06T20:26:44.563Z,35.48
2023-03-06T20:29:11.352Z,34.83
2023-03-06T20:31:38.127Z,34.21
2023-03-06T20:34:04.929Z,33.99
2023-03-06T20:36:31.788Z,33.58
2023-03-06T20:38:58.547Z,33.61
2023-03-06T20:41:25.413Z,33.21
2023-03-06T20:43:52.262Z,33.21
2023-03-06T20:46:19.155Z,33.41
2023-03-06T20:48:46.036Z,33.17
2023-03-06T20:51:12.833Z,33.15
2023-03-06T20:53:39.602Z,33.06
2023-03-06T20:56:06.500Z,33.03
2023-03-06T20:58:33.277Z,32.80
2023-03-06T21:01:02.343Z,32.73
2023-03-06T21:03:29.563Z,33.03
2023-03-06T21:05:56.335Z,32.80
2023-03-06T21:08:23.213Z,32.65
2023-03-06T21:10:49.980Z,33.16
2023-03-06T21:13:16.873Z,36.25
2023-03-06T21:15:43.901Z,38.25
2023-03-06T21:18:10.629Z,37.16
2023-03-06T21:20:37.376Z,35.55
2023-03-06T21:23:04.229Z,34.63
2023-03-06T21:25:30.994Z,34.17
2023-03-06T21:27:59.024Z,33.98
2023-03-06T21:30:25.881Z,33.58
2023-03-06T21:32:52.651Z,33.47
2023-03-06T21:35:19.487Z,33.20
2023-03-06T21:37:46.309Z,33.24
2023-03-06T21:40:13.949Z,33.00
2023-03-06T21:42:40.702Z,33.10
2023-03-06T21:45:10.481Z,33.20
2023-03-06T21:47:40.866Z,32.88
2023-03-06T21:50:07.617Z,32.75
2023-03-06T21:52:34.410Z,32.59
2023-03-06T21:55:01.147Z,32.74
2023-03-06T21:57:27.971Z,32.90
2023-03-06T21:59:54.766Z,32.58
2023-03-06T22:02:21.499Z,32.72
2023-03-06T22:04:49.908Z,32.53
2023-03-06T22:07:16.674Z,32.91
2023-03-06T22:09:43.422Z,36.18
2023-03-06T22:12:10.164Z,38.70
2023-03-06T22:14:36.989Z,35.91
2023-03-06T22:17:03.735Z,34.81
2023-03-06T22:19:30.557Z,34.08
2023-03-06T22:21:57.344Z,33.83
2023-03-06T22:24:24.071Z,33.37
2023-03-06T22:26:50.830Z,33.37
2023-03-06T22:29:17.602Z,33.22
2023-03-06T22:31:44.361Z,33.03
2023-03-06T22:34:11.149Z,32.99
2023-03-06T22:36:37.895Z,32.75
2023-03-06T22:39:04.622Z,32.91
2023-03-06T22:41:31.399Z,32.82
2023-03-06T22:43:58.237Z,32.94
2023-03-06T22:46:25.094Z,32.54
2023-03-06T22:48:51.948Z,32.75
2023-03-06T22:51:18.722Z,32.69
2023-03-06T22:53:45.461Z,32.66
2023-03-06T22:56:12.292Z,32.41
2023-03-06T22:58:39.069Z,34.43
2023-03-06T23:01:06.015Z,37.38
2023-03-06T23:03:32.825Z,38.40
2023-03-06T23:05:59.564Z,35.61
2023-03-06T23:08:26.376Z,34.73
2023-03-06T23:10:53.115Z,34.00
2023-03-06T23:13:19.878Z,33.56
2023-03-06T23:15:46.617Z,33.74
2023-03-06T23:18:13.382Z,33.39
2023-03-06T23:20:40.136Z,33.07
2023-03-06T23:23:06.895Z,33.12
2023-03-06T23:25:34.629Z,33.08
2023-03-06T23:28:01.721Z,32.88
2023-03-06T23:30:28.466Z,32.79
2023-03-06T23:32:55.230Z,32.90
2023-03-06T23:35:22.037Z,32.82
2023-03-06T23:37:48.804Z,32.65
2023-03-06T23:40:16.113Z,32.74
2023-03-06T23:42:42.895Z,32.61
2023-03-06T23:45:09.638Z,32.43
2023-03-06T23:47:36.381Z,32.69
2023-03-06T23:50:03.251Z,32.39
2023-03-06T23:52:30.014Z,32.43
2023-03-06T23:54:56.747Z,36.04
2023-03-06T23:57:23.578Z,37.57
2023-03-06T23:59:50.330Z,36.93
